CheckWX is a tool to help pilots better visualize weather data.  It is not intended as a substitute for an official pre-flight weather briefing.

11:05:44 UTC

UIII METAR
Irkutsk Airport
Irkutsk, Russian Federation
Current

36 mins ago

UIII 171030Z 07002MPS CAVOK M18/M25 Q1032 R12/820555 NOSIG RMK QFE731/0975
Observed
Nov-17 @ 10:30 UTC
Wind
  • 070° at 4 KTS
Visibility
10,000+ meters
Flight Rules
VFR
Cloud Levels
  • Clear skies
Temperature
-18°C / -0°F
Dewpoint
-25°C / -13°F
Humidity
54%
Altimeter
30.47" Hg
Pressure
1031.92 hPa
Previous

1 hour ago

UIII 171000Z 07002MPS CAVOK M18/M25 Q1032 R12/820555 NOSIG RMK QFE731/0975
Observed
Nov-17 @ 10:00 UTC
Wind
  • 070° at 4 KTS
Visibility
10,000+ meters
Flight Rules
VFR
Cloud Levels
  • Clear skies
Temperature
-18°C / -0°F
Dewpoint
-25°C / -13°F
Humidity
54%
Altimeter
30.47" Hg
Pressure
1031.92 hPa
Previous

2 hours ago

UIII 170930Z 08003MPS CAVOK M18/M25 Q1032 R12/820555 NOSIG RMK QFE731/0975
Observed
Nov-17 @ 09:30 UTC
Wind
  • 080° at 6 KTS
Visibility
10,000+ meters
Flight Rules
VFR
Cloud Levels
  • Clear skies
Temperature
-18°C / -0°F
Dewpoint
-25°C / -13°F
Humidity
54%
Altimeter
30.47" Hg
Pressure
1031.92 hPa